sensor_id;sensor_type;location;lat;lon;timestamp;pressure;altitude;pressure_sealevel;temperature;humidity
9525;BME280;15940;48.734;9.112;2023-10-08T00:02:10;97384.59;;;14.27;55.98
9525;BME280;15940;48.734;9.112;2023-10-08T00:04:40;97389.59;;;14.35;55.59
9525;BME280;15940;48.734;9.112;2023-10-08T00:07:09;97380.41;;;14.38;55.25
9525;BME280;15940;48.734;9.112;2023-10-08T00:09:37;97370.75;;;14.37;54.29
9525;BME280;15940;48.734;9.112;2023-10-08T00:12:05;97366.28;;;14.34;54.24
9525;BME280;15940;48.734;9.112;2023-10-08T00:14:33;97361.34;;;14.38;53.59
9525;BME280;15940;48.734;9.112;2023-10-08T00:17:11;97353.91;;;14.38;53.07
9525;BME280;15940;48.734;9.112;2023-10-08T00:19:39;97350.94;;;14.36;52.25
9525;BME280;15940;48.734;9.112;2023-10-08T00:22:08;97345.47;;;14.36;52.51
9525;BME280;15940;48.734;9.112;2023-10-08T00:24:36;97348.44;;;14.38;51.35
9525;BME280;15940;48.734;9.112;2023-10-08T00:27:07;97351.69;;;14.42;52.32
9525;BME280;15940;48.734;9.112;2023-10-08T00:29:34;97346.25;;;14.42;51.71
9525;BME280;15940;48.734;9.112;2023-10-08T00:32:05;97360.13;;;14.44;51.09
9525;BME280;15940;48.734;9.112;2023-10-08T00:34:39;97360.88;;;14.45;51.74
9525;BME280;15940;48.734;9.112;2023-10-08T00:37:10;97356.19;;;14.45;51.38
9525;BME280;15940;48.734;9.112;2023-10-08T00:39:40;97348.97;;;14.42;51.19
9525;BME280;15940;48.734;9.112;2023-10-08T00:42:08;97364.59;;;14.47;51.34
9525;BME280;15940;48.734;9.112;2023-10-08T00:44:36;97355.44;;;14.45;51.86
9525;BME280;15940;48.734;9.112;2023-10-08T00:47:14;97348.25;;;14.47;51.38
9525;BME280;15940;48.734;9.112;2023-10-08T00:49:45;97343.81;;;14.50;52.10
9525;BME280;15940;48.734;9.112;2023-10-08T00:52:20;97346.78;;;14.52;51.56
9525;BME280;15940;48.734;9.112;2023-10-08T00:55:04;97341.59;;;14.54;52.35
9525;BME280;15940;48.734;9.112;2023-10-08T00:57:40;97340.84;;;14.53;52.06
9525;BME280;15940;48.734;9.112;2023-10-08T01:00:11;97339.84;;;14.51;51.44
9525;BME280;15940;48.734;9.112;2023-10-08T01:02:48;97335.63;;;14.50;51.33
9525;BME280;15940;48.734;9.112;2023-10-08T01:05:22;97334.13;;;14.49;51.21
9525;BME280;15940;48.734;9.112;2023-10-08T01:08:02;97336.38;;;14.50;51.76
9525;BME280;15940;48.734;9.112;2023-10-08T01:10:32;97330.19;;;14.50;51.30
9525;BME280;15940;48.734;9.112;2023-10-08T01:12:59;97337.34;;;14.47;52.25
9525;BME280;15940;48.734;9.112;2023-10-08T01:15:33;97333.13;;;14.46;52.21
9525;BME280;15940;48.734;9.112;2023-10-08T01:18:02;97330.63;;;14.43;51.63
9525;BME280;15940;48.734;9.112;2023-10-08T01:20:33;97331.16;;;14.47;51.99
9525;BME280;15940;48.734;9.112;2023-10-08T01:23:04;97317.28;;;14.45;52.00
9525;BME280;15940;48.734;9.112;2023-10-08T01:25:37;97317.50;;;14.41;52.54
9525;BME280;15940;48.734;9.112;2023-10-08T01:28:05;97308.56;;;14.35;52.86
9525;BME280;15940;48.734;9.112;2023-10-08T01:30:35;97326.38;;;14.30;52.44
9525;BME280;15940;48.734;9.112;2023-10-08T01:33:08;97322.66;;;14.22;52.56
9525;BME280;15940;48.734;9.112;2023-10-08T01:35:39;97318.47;;;14.21;54.21
9525;BME280;15940;48.734;9.112;2023-10-08T01:38:07;97316.44;;;14.11;53.34
9525;BME280;15940;48.734;9.112;2023-10-08T01:40:42;97323.59;;;14.03;53.47
9525;BME280;15940;48.734;9.112;2023-10-08T01:43:16;97312.47;;;14.06;55.32
9525;BME280;15940;48.734;9.112;2023-10-08T01:45:43;97328.03;;;14.00;56.07
9525;BME280;15940;48.734;9.112;2023-10-08T01:48:15;97323.28;;;13.89;55.93
9525;BME280;15940;48.734;9.112;2023-10-08T01:50:46;97317.81;;;13.78;56.59
9525;BME280;15940;48.734;9.112;2023-10-08T01:53:15;97319.25;;;13.68;56.82
9525;BME280;15940;48.734;9.112;2023-10-08T01:55:42;97328.66;;;13.67;57.29
9525;BME280;15940;48.734;9.112;2023-10-08T01:58:16;97328.13;;;13.57;56.89
9525;BME280;15940;48.734;9.112;2023-10-08T02:00:45;97326.34;;;13.49;58.37
9525;BME280;15940;48.734;9.112;2023-10-08T02:03:13;97324.56;;;13.40;58.22
9525;BME280;15940;48.734;9.112;2023-10-08T02:05:42;97326.00;;;13.35;59.21
9525;BME280;15940;48.734;9.112;2023-10-08T02:08:10;97320.03;;;13.31;59.19
9525;BME280;15940;48.734;9.112;2023-10-08T02:10:41;97326.47;;;13.28;59.46
9525;BME280;15940;48.734;9.112;2023-10-08T02:13:09;97331.41;;;13.30;59.63
9525;BME280;15940;48.734;9.112;2023-10-08T02:15:36;97323.00;;;13.28;60.13
9525;BME280;15940;48.734;9.112;2023-10-08T02:18:07;97326.47;;;13.28;60.25
9525;BME280;15940;48.734;9.112;2023-10-08T02:20:34;97334.06;;;13.19;60.25
9525;BME280;15940;48.734;9.112;2023-10-08T02:23:01;97335.56;;;13.20;60.72
9525;BME280;15940;48.734;9.112;2023-10-08T02:25:31;97338.47;;;13.16;60.48
9525;BME280;15940;48.734;9.112;2023-10-08T02:28:03;97345.38;;;13.11;60.49
9525;BME280;15940;48.734;9.112;2023-10-08T02:30:30;97348.53;;;13.04;61.55
9525;BME280;15940;48.734;9.112;2023-10-08T02:32:57;97342.56;;;13.00;61.58
9525;BME280;15940;48.734;9.112;2023-10-08T02:35:25;97346.28;;;13.03;61.29
9525;BME280;15940;48.734;9.112;2023-10-08T02:37:52;97341.59;;;13.03;61.64
9525;BME280;15940;48.734;9.112;2023-10-08T02:40:20;97342.34;;;13.04;61.68
9525;BME280;15940;48.734;9.112;2023-10-08T02:42:53;97341.09;;;13.05;62.11
9525;BME280;15940;48.734;9.112;2023-10-08T02:45:25;97348.75;;;13.01;62.77
9525;BME280;15940;48.734;9.112;2023-10-08T02:47:52;97347.25;;;13.00;62.32
9525;BME280;15940;48.734;9.112;2023-10-08T02:50:20;97353.94;;;12.99;62.65
9525;BME280;15940;48.734;9.112;2023-10-08T02:52:48;97351.22;;;12.99;62.28
9525;BME280;15940;48.734;9.112;2023-10-08T02:55:16;97349.69;;;12.98;62.65
9525;BME280;15940;48.734;9.112;2023-10-08T02:57:54;97350.19;;;12.96;62.44
9525;BME280;15940;48.734;9.112;2023-10-08T03:00:22;97346.97;;;12.98;62.35
9525;BME280;15940;48.734;9.112;2023-10-08T03:02:56;97349.66;;;12.92;62.10
9525;BME280;15940;48.734;9.112;2023-10-08T03:05:24;97351.66;;;12.92;62.40
9525;BME280;15940;48.734;9.112;2023-10-08T03:07:55;97334.84;;;12.93;62.27
9525;BME280;15940;48.734;9.112;2023-10-08T03:10:23;97337.56;;;12.93;62.31
9525;BME280;15940;48.734;9.112;2023-10-08T03:12:58;97341.28;;;12.96;62.35
9525;BME280;15940;48.734;9.112;2023-10-08T03:15:30;97341.09;;;12.99;62.52
9525;BME280;15940;48.734;9.112;2023-10-08T03:18:06;97330.94;;;13.00;62.18
9525;BME280;15940;48.734;9.112;2023-10-08T03:20:36;97328.25;;;13.05;62.37
9525;BME280;15940;48.734;9.112;2023-10-08T03:23:09;97333.50;;;13.09;62.05
9525;BME280;15940;48.734;9.112;2023-10-08T03:25:51;97321.63;;;13.12;61.93
9525;BME280;15940;48.734;9.112;2023-10-08T03:28:22;97322.72;;;13.20;61.48
9525;BME280;15940;48.734;9.112;2023-10-08T03:30:51;97319.00;;;13.23;61.26
9525;BME280;15940;48.734;9.112;2023-10-08T03:33:30;97321.78;;;13.29;61.43
9525;BME280;15940;48.734;9.112;2023-10-08T03:36:01;97319.31;;;13.31;61.28
9525;BME280;15940;48.734;9.112;2023-10-08T03:41:01;97327.16;;;13.23;61.55
9525;BME280;15940;48.734;9.112;2023-10-08T03:43:33;97328.41;;;13.22;61.50
9525;BME280;15940;48.734;9.112;2023-10-08T03:46:08;97332.50;;;13.12;60.91
9525;BME280;15940;48.734;9.112;2023-10-08T03:48:41;97340.94;;;13.14;61.06
9525;BME280;15940;48.734;9.112;2023-10-08T03:51:11;97337.34;;;12.97;60.16
9525;BME280;15940;48.734;9.112;2023-10-08T03:53:38;97348.63;;;12.84;61.66
9525;BME280;15940;48.734;9.112;2023-10-08T03:56:25;97337.09;;;12.69;62.40
9525;BME280;15940;48.734;9.112;2023-10-08T03:58:55;97351.59;;;12.60;62.79
9525;BME280;15940;48.734;9.112;2023-10-08T04:01:26;97352.41;;;12.66;63.56
9525;BME280;15940;48.734;9.112;2023-10-08T04:03:57;97348.88;;;12.60;63.76
9525;BME280;15940;48.734;9.112;2023-10-08T04:06:28;97346.66;;;12.58;63.96
9525;BME280;15940;48.734;9.112;2023-10-08T04:08:56;97350.41;;;12.61;63.70
9525;BME280;15940;48.734;9.112;2023-10-08T04:11:39;97342.25;;;12.61;63.77
9525;BME280;15940;48.734;9.112;2023-10-08T04:14:18;97362.44;;;12.54;63.83
9525;BME280;15940;48.734;9.112;2023-10-08T04:16:46;97354.22;;;12.49;64.72
9525;BME280;15940;48.734;9.112;2023-10-08T04:19:17;97341.59;;;12.46;64.56
9525;BME280;15940;48.734;9.112;2023-10-08T04:21:44;97340.03;;;12.39;64.73
9525;BME280;15940;48.734;9.112;2023-10-08T04:24:21;97342.75;;;12.39;64.72
9525;BME280;15940;48.734;9.112;2023-10-08T04:26:56;97332.94;;;12.42;65.20
9525;BME280;15940;48.734;9.112;2023-10-08T04:29:24;97335.44;;;12.45;64.48
9525;BME280;15940;48.734;9.112;2023-10-08T04:31:52;97328.25;;;12.42;64.93
9525;BME280;15940;48.734;9.112;2023-10-08T04:34:28;97330.25;;;12.47;64.87
9525;BME280;15940;48.734;9.112;2023-10-08T04:36:55;97328.34;;;12.53;64.56
9525;BME280;15940;48.734;9.112;2023-10-08T04:39:27;97315.75;;;12.56;64.17
9525;BME280;15940;48.734;9.112;2023-10-08T04:42:00;97320.72;;;12.57;64.17
9525;BME280;15940;48.734;9.112;2023-10-08T04:44:37;97310.38;;;12.62;63.88
9525;BME280;15940;48.734;9.112;2023-10-08T04:47:06;97316.88;;;12.70;64.04
9525;BME280;15940;48.734;9.112;2023-10-08T04:49:53;97312.69;;;12.74;63.61
9525;BME280;15940;48.734;9.112;2023-10-08T04:52:22;97322.59;;;12.77;63.71
9525;BME280;15940;48.734;9.112;2023-10-08T04:54:53;97323.09;;;12.76;64.70
9525;BME280;15940;48.734;9.112;2023-10-08T04:57:21;97326.03;;;12.72;63.90
9525;BME280;15940;48.734;9.112;2023-10-08T04:59:51;97333.44;;;12.72;63.07
9525;BME280;15940;48.734;9.112;2023-10-08T05:02:23;97339.53;;;12.61;63.51
9525;BME280;15940;48.734;9.112;2023-10-08T05:05:00;97343.75;;;12.62;64.60
9525;BME280;15940;48.734;9.112;2023-10-08T05:07:44;97333.06;;;12.58;64.69
9525;BME280;15940;48.734;9.112;2023-10-08T05:10:54;97339.78;;;12.63;64.55
9525;BME280;15940;48.734;9.112;2023-10-08T05:13:29;97330.66;;;12.66;64.18
9525;BME280;15940;48.734;9.112;2023-10-08T05:16:10;97334.63;;;12.65;64.45
9525;BME280;15940;48.734;9.112;2023-10-08T05:19:01;97338.78;;;12.61;64.18
9525;BME280;15940;48.734;9.112;2023-10-08T05:21:51;97338.31;;;12.62;63.28
9525;BME280;15940;48.734;9.112;2023-10-08T05:24:28;97333.38;;;12.66;63.62
9525;BME280;15940;48.734;9.112;2023-10-08T05:27:06;97340.38;;;12.73;63.84
9525;BME280;15940;48.734;9.112;2023-10-08T05:29:48;97348.53;;;12.73;63.06
9525;BME280;15940;48.734;9.112;2023-10-08T05:32:35;97337.44;;;12.76;63.20
9525;BME280;15940;48.734;9.112;2023-10-08T05:35:17;97336.69;;;12.76;63.28
9525;BME280;15940;48.734;9.112;2023-10-08T05:38:01;97343.84;;;12.73;62.94
9525;BME280;15940;48.734;9.112;2023-10-08T05:40:40;97352.00;;;12.73;63.19
9525;BME280;15940;48.734;9.112;2023-10-08T05:43:26;97359.31;;;12.62;63.60
9525;BME280;15940;48.734;9.112;2023-10-08T05:46:16;97358.75;;;12.57;64.47
9525;BME280;15940;48.734;9.112;2023-10-08T05:49:05;97352.09;;;12.58;64.55
9525;BME280;15940;48.734;9.112;2023-10-08T05:51:52;97364.19;;;12.57;64.57
9525;BME280;15940;48.734;9.112;2023-10-08T05:54:33;97362.75;;;12.62;64.39
9525;BME280;15940;48.734;9.112;2023-10-08T05:57:13;97359.81;;;12.66;64.26
9525;BME280;15940;48.734;9.112;2023-10-08T05:59:50;97370.91;;;12.62;65.02
9525;BME280;15940;48.734;9.112;2023-10-08T06:02:36;97376.84;;;12.61;65.08
9525;BME280;15940;48.734;9.112;2023-10-08T06:05:26;97381.03;;;12.62;64.91
9525;BME280;15940;48.734;9.112;2023-10-08T06:07:58;97363.41;;;12.51;65.20
9525;BME280;15940;48.734;9.112;2023-10-08T06:10:37;97371.59;;;12.57;65.73
9525;BME280;15940;48.734;9.112;2023-10-08T06:13:20;97370.38;;;12.58;65.90
9525;BME280;15940;48.734;9.112;2023-10-08T06:15:57;97377.09;;;12.63;65.83
9525;BME280;15940;48.734;9.112;2023-10-08T06:18:35;97375.38;;;12.65;65.45
9525;BME280;15940;48.734;9.112;2023-10-08T06:21:05;97378.44;;;12.73;64.84
9525;BME280;15940;48.734;9.112;2023-10-08T06:23:35;97376.31;;;12.88;64.31
9525;BME280;15940;48.734;9.112;2023-10-08T06:26:03;97378.34;;;12.93;63.83
9525;BME280;15940;48.734;9.112;2023-10-08T06:28:41;97363.59;;;13.00;64.09
9525;BME280;15940;48.734;9.112;2023-10-08T06:31:10;97367.81;;;13.06;63.69
9525;BME280;15940;48.734;9.112;2023-10-08T06:33:44;97363.44;;;13.14;63.35
9525;BME280;15940;48.734;9.112;2023-10-08T06:36:11;97362.28;;;13.21;62.68
9525;BME280;15940;48.734;9.112;2023-10-08T06:38:43;97358.84;;;13.26;62.65
9525;BME280;15940;48.734;9.112;2023-10-08T06:41:12;97369.03;;;13.31;62.68
9525;BME280;15940;48.734;9.112;2023-10-08T06:43:44;97363.84;;;13.33;62.97
9525;BME280;15940;48.734;9.112;2023-10-08T06:46:14;97353.50;;;13.37;62.25
9525;BME280;15940;48.734;9.112;2023-10-08T06:48:43;97362.59;;;13.34;61.47
9525;BME280;15940;48.734;9.112;2023-10-08T06:51:12;97366.88;;;13.41;62.51
9525;BME280;15940;48.734;9.112;2023-10-08T06:53:39;97370.59;;;13.43;62.39
9525;BME280;15940;48.734;9.112;2023-10-08T06:56:06;97364.66;;;13.45;61.36
9525;BME280;15940;48.734;9.112;2023-10-08T06:58:35;97369.66;;;13.52;61.04
9525;BME280;15940;48.734;9.112;2023-10-08T07:01:02;97364.00;;;13.56;60.46
9525;BME280;15940;48.734;9.112;2023-10-08T07:03:31;97356.19;;;13.75;60.97
9525;BME280;15940;48.734;9.112;2023-10-08T07:06:01;97342.06;;;13.82;60.00
9525;BME280;15940;48.734;9.112;2023-10-08T07:08:30;97354.53;;;13.99;59.66
9525;BME280;15940;48.734;9.112;2023-10-08T07:11:00;97356.34;;;14.25;61.32
9525;BME280;15940;48.734;9.112;2023-10-08T07:13:32;97367.09;;;14.45;60.06
9525;BME280;15940;48.734;9.112;2023-10-08T07:16:01;97355.22;;;14.60;58.92
9525;BME280;15940;48.734;9.112;2023-10-08T07:18:30;97372.34;;;14.71;58.14
9525;BME280;15940;48.734;9.112;2023-10-08T07:21:02;97374.34;;;14.93;58.53
9525;BME280;15940;48.734;9.112;2023-10-08T07:23:37;97392.19;;;15.22;58.47
9525;BME280;15940;48.734;9.112;2023-10-08T07:26:21;97393.41;;;15.55;58.45
9525;BME280;15940;48.734;9.112;2023-10-08T07:28:50;97388.88;;;15.91;59.34
9525;BME280;15940;48.734;9.112;2023-10-08T07:31:20;97391.47;;;16.30;58.00
9525;BME280;15940;48.734;9.112;2023-10-08T07:33:49;97392.53;;;16.68;57.28
9525;BME280;15940;48.734;9.112;2023-10-08T07:36:23;97405.31;;;16.90;57.06
9525;BME280;15940;48.734;9.112;2023-10-08T07:38:51;97398.00;;;17.04;57.26
9525;BME280;15940;48.734;9.112;2023-10-08T07:41:18;97401.94;;;17.08;57.29
9525;BME280;15940;48.734;9.112;2023-10-08T07:43:47;97409.13;;;17.11;57.21
9525;BME280;15940;48.734;9.112;2023-10-08T07:46:21;97411.34;;;17.13;57.27
9525;BME280;15940;48.734;9.112;2023-10-08T07:48:48;97403.13;;;17.19;57.10
9525;BME280;15940;48.734;9.112;2023-10-08T07:51:16;97405.03;;;17.24;57.46
9525;BME280;15940;48.734;9.112;2023-10-08T07:53:49;97403.25;;;17.32;55.85
9525;BME280;15940;48.734;9.112;2023-10-08T07:56:20;97395.72;;;17.38;55.39
9525;BME280;15940;48.734;9.112;2023-10-08T07:58:47;97403.31;;;17.51;54.04
9525;BME280;15940;48.734;9.112;2023-10-08T08:01:14;97392.72;;;17.66;55.66
9525;BME280;15940;48.734;9.112;2023-10-08T08:03:41;97391.44;;;17.73;54.85
9525;BME280;15940;48.734;9.112;2023-10-08T08:06:08;97385.22;;;17.72;53.87
9525;BME280;15940;48.734;9.112;2023-10-08T08:08:37;97369.53;;;17.73;53.26
9525;BME280;15940;48.734;9.112;2023-10-08T08:11:06;97378.56;;;17.62;52.63
9525;BME280;15940;48.734;9.112;2023-10-08T08:13:38;97378.66;;;17.51;51.75
9525;BME280;15940;48.734;9.112;2023-10-08T08:16:08;97385.47;;;17.44;52.47
9525;BME280;15940;48.734;9.112;2023-10-08T08:18:43;97384.03;;;17.37;52.28
9525;BME280;15940;48.734;9.112;2023-10-08T08:21:11;97380.59;;;17.31;52.94
9525;BME280;15940;48.734;9.112;2023-10-08T08:23:42;97391.03;;;17.33;52.96
9525;BME280;15940;48.734;9.112;2023-10-08T08:26:15;97403.47;;;17.34;53.02
9525;BME280;15940;48.734;9.112;2023-10-08T08:28:55;97429.84;;;17.37;53.69
9525;BME280;15940;48.734;9.112;2023-10-08T08:31:23;97440.41;;;17.52;53.97
9525;BME280;15940;48.734;9.112;2023-10-08T08:33:51;97455.16;;;17.79;54.21
9525;BME280;15940;48.734;9.112;2023-10-08T08:36:26;97440.19;;;18.04;53.84
9525;BME280;15940;48.734;9.112;2023-10-08T08:38:54;97453.59;;;18.08;51.01
9525;BME280;15940;48.734;9.112;2023-10-08T08:41:23;97460.16;;;17.99;52.05
9525;BME280;15940;48.734;9.112;2023-10-08T08:43:51;97461.91;;;18.02;53.51
9525;BME280;15940;48.734;9.112;2023-10-08T08:46:29;97460.75;;;18.16;53.39
9525;BME280;15940;48.734;9.112;2023-10-08T08:49:00;97465.28;;;18.33;52.12
9525;BME280;15940;48.734;9.112;2023-10-08T08:51:28;97461.50;;;18.36;52.99
9525;BME280;15940;48.734;9.112;2023-10-08T08:53:56;97461.97;;;18.40;52.91
9525;BME280;15940;48.734;9.112;2023-10-08T08:56:28;97469.09;;;18.48;53.27
9525;BME280;15940;48.734;9.112;2023-10-08T08:58:58;97468.91;;;18.65;51.36
9525;BME280;15940;48.734;9.112;2023-10-08T09:01:26;97473.22;;;18.79;51.76
9525;BME280;15940;48.734;9.112;2023-10-08T09:03:59;97476.22;;;18.57;49.93
9525;BME280;15940;48.734;9.112;2023-10-08T09:06:27;97477.09;;;18.46;50.99
9525;BME280;15940;48.734;9.112;2023-10-08T09:08:54;97481.19;;;18.40;51.61
9525;BME280;15940;48.734;9.112;2023-10-08T09:11:40;97471.47;;;18.39;52.63
9525;BME280;15940;48.734;9.112;2023-10-08T09:14:08;97467.97;;;18.38;52.11
9525;BME280;15940;48.734;9.112;2023-10-08T09:16:37;97468.50;;;18.55;53.06
9525;BME280;15940;48.734;9.112;2023-10-08T09:19:04;97480.03;;;18.73;51.87
9525;BME280;15940;48.734;9.112;2023-10-08T09:21:37;97469.16;;;18.86;52.65
9525;BME280;15940;48.734;9.112;2023-10-08T09:24:05;97466.22;;;19.16;52.44
9525;BME280;15940;48.734;9.112;2023-10-08T09:26:38;97471.50;;;19.91;50.50
9525;BME280;15940;48.734;9.112;2023-10-08T09:29:05;97469.28;;;20.69;48.56
9525;BME280;15940;48.734;9.112;2023-10-08T09:31:34;97469.84;;;21.23;46.27
9525;BME280;15940;48.734;9.112;2023-10-08T09:34:03;97467.25;;;21.59;44.45
9525;BME280;15940;48.734;9.112;2023-10-08T09:36:31;97466.19;;;21.62;44.41
9525;BME280;15940;48.734;9.112;2023-10-08T09:39:01;97464.56;;;21.46;45.52
9525;BME280;15940;48.734;9.112;2023-10-08T09:41:31;97476.44;;;21.41;46.01
9525;BME280;15940;48.734;9.112;2023-10-08T09:44:00;97467.41;;;21.53;46.66
9525;BME280;15940;48.734;9.112;2023-10-08T09:46:30;97469.06;;;21.56;43.97
9525;BME280;15940;48.734;9.112;2023-10-08T09:49:00;97468.00;;;21.38;45.83
9525;BME280;15940;48.734;9.112;2023-10-08T09:51:35;97456.28;;;21.25;47.21
9525;BME280;15940;48.734;9.112;2023-10-08T09:54:10;97459.16;;;21.19;45.69
9525;BME280;15940;48.734;9.112;2023-10-08T09:56:40;97460.50;;;21.26;47.50
9525;BME280;15940;48.734;9.112;2023-10-08T09:59:10;97454.00;;;21.36;47.92
9525;BME280;15940;48.734;9.112;2023-10-08T10:01:38;97466.31;;;21.35;46.57
9525;BME280;15940;48.734;9.112;2023-10-08T10:04:08;97464.19;;;21.42;47.98
9525;BME280;15940;48.734;9.112;2023-10-08T10:06:36;97464.28;;;21.36;47.30
9525;BME280;15940;48.734;9.112;2023-10-08T10:11:29;97459.91;;;21.41;46.01
9525;BME280;15940;48.734;9.112;2023-10-08T10:13:59;97459.19;;;21.40;45.42
9525;BME280;15940;48.734;9.112;2023-10-08T10:16:27;97461.59;;;21.64;47.66
9525;BME280;15940;48.734;9.112;2023-10-08T10:18:56;97461.97;;;21.89;46.11
9525;BME280;15940;48.734;9.112;2023-10-08T10:21:32;97464.75;;;22.18;46.37
9525;BME280;15940;48.734;9.112;2023-10-08T10:24:00;97461.88;;;22.31;44.78
9525;BME280;15940;48.734;9.112;2023-10-08T10:26:29;97467.78;;;22.35;45.95
9525;BME280;15940;48.734;9.112;2023-10-08T10:29:22;97481.75;;;22.30;45.64
9525;BME280;15940;48.734;9.112;2023-10-08T10:31:53;97483.59;;;22.35;47.34
9525;BME280;15940;48.734;9.112;2023-10-08T10:34:23;97483.34;;;22.17;45.32
9525;BME280;15940;48.734;9.112;2023-10-08T10:36:53;97481.72;;;22.01;46.57
9525;BME280;15940;48.734;9.112;2023-10-08T10:39:25;97478.53;;;21.89;46.89
9525;BME280;15940;48.734;9.112;2023-10-08T10:42:01;97477.25;;;21.90;47.13
9525;BME280;15940;48.734;9.112;2023-10-08T10:44:30;97482.03;;;21.90;46.18
9525;BME280;15940;48.734;9.112;2023-10-08T10:46:58;97472.28;;;21.89;44.70
9525;BME280;15940;48.734;9.112;2023-10-08T10:49:49;97481.31;;;22.18;47.16
9525;BME280;15940;48.734;9.112;2023-10-08T10:52:22;97473.03;;;22.54;45.31
9525;BME280;15940;48.734;9.112;2023-10-08T10:55:01;97479.28;;;22.98;45.29
9525;BME280;15940;48.734;9.112;2023-10-08T10:57:50;97474.03;;;23.38;44.39
9525;BME280;15940;48.734;9.112;2023-10-08T11:00:20;97470.91;;;23.57;43.91
9525;BME280;15940;48.734;9.112;2023-10-08T11:03:13;97470.19;;;23.72;42.37
9525;BME280;15940;48.734;9.112;2023-10-08T11:05:44;97476.25;;;23.86;42.59
9525;BME280;15940;48.734;9.112;2023-10-08T11:08:16;97466.66;;;23.94;41.43
9525;BME280;15940;48.734;9.112;2023-10-08T11:10:44;97463.72;;;23.92;42.44
9525;BME280;15940;48.734;9.112;2023-10-08T11:13:19;97467.22;;;23.93;43.26
9525;BME280;15940;48.734;9.112;2023-10-08T11:15:50;97463.56;;;23.68;43.94
9525;BME280;15940;48.734;9.112;2023-10-08T11:18:20;97462.94;;;23.31;44.63
9525;BME280;15940;48.734;9.112;2023-10-08T11:20:49;97469.16;;;23.01;45.42
9525;BME280;15940;48.734;9.112;2023-10-08T11:23:33;97458.09;;;22.86;46.43
9525;BME280;15940;48.734;9.112;2023-10-08T11:26:03;97457.72;;;22.89;47.71
9525;BME280;15940;48.734;9.112;2023-10-08T11:28:33;97463.41;;;22.84;46.77
9525;BME280;15940;48.734;9.112;2023-10-08T11:31:01;97459.13;;;22.83;47.32
9525;BME280;15940;48.734;9.112;2023-10-08T11:33:35;97464.28;;;22.78;46.35
9525;BME280;15940;48.734;9.112;2023-10-08T11:36:03;97449.38;;;22.81;48.30
9525;BME280;15940;48.734;9.112;2023-10-08T11:38:39;97456.56;;;22.77;47.54
9525;BME280;15940;48.734;9.112;2023-10-08T11:41:13;97450.28;;;22.76;48.41
9525;BME280;15940;48.734;9.112;2023-10-08T11:43:49;97450.03;;;23.03;48.23
9525;BME280;15940;48.734;9.112;2023-10-08T11:46:21;97445.28;;;23.42;44.70
9525;BME280;15940;48.734;9.112;2023-10-08T11:48:51;97445.84;;;23.63;43.49
9525;BME280;15940;48.734;9.112;2023-10-08T11:51:18;97433.66;;;23.89;43.80
9525;BME280;15940;48.734;9.112;2023-10-08T11:53:49;97435.63;;;24.27;44.42
9525;BME280;15940;48.734;9.112;2023-10-08T11:56:17;97426.69;;;24.51;43.09
9525;BME280;15940;48.734;9.112;2023-10-08T11:58:49;97422.72;;;24.69;41.26
9525;BME280;15940;48.734;9.112;2023-10-08T12:01:17;97424.72;;;24.76;40.08
9525;BME280;15940;48.734;9.112;2023-10-08T12:03:44;97414.19;;;24.75;40.44
9525;BME280;15940;48.734;9.112;2023-10-08T12:06:12;97409.59;;;24.70;39.56
9525;BME280;15940;48.734;9.112;2023-10-08T12:08:44;97406.06;;;24.77;37.94
9525;BME280;15940;48.734;9.112;2023-10-08T12:11:15;97402.88;;;24.81;38.41
9525;BME280;15940;48.734;9.112;2023-10-08T12:13:43;97401.91;;;24.93;37.59
9525;BME280;15940;48.734;9.112;2023-10-08T12:16:15;97404.03;;;25.10;39.13
9525;BME280;15940;48.734;9.112;2023-10-08T12:18:48;97402.41;;;25.32;39.91
9525;BME280;15940;48.734;9.112;2023-10-08T12:21:19;97407.91;;;25.57;39.08
9525;BME280;15940;48.734;9.112;2023-10-08T12:23:47;97400.59;;;25.69;41.41
9525;BME280;15940;48.734;9.112;2023-10-08T12:26:15;97407.69;;;25.62;39.68
9525;BME280;15940;48.734;9.112;2023-10-08T12:28:45;97397.06;;;25.51;39.35
9525;BME280;15940;48.734;9.112;2023-10-08T12:31:15;97403.09;;;25.57;39.41
9525;BME280;15940;48.734;9.112;2023-10-08T12:33:43;97394.94;;;25.59;38.71
9525;BME280;15940;48.734;9.112;2023-10-08T12:36:13;97398.91;;;25.74;39.63
9525;BME280;15940;48.734;9.112;2023-10-08T12:38:43;97399.00;;;25.83;39.09
9525;BME280;15940;48.734;9.112;2023-10-08T12:41:11;97392.88;;;25.85;39.79
9525;BME280;15940;48.734;9.112;2023-10-08T12:43:43;97402.09;;;26.05;38.75
9525;BME280;15940;48.734;9.112;2023-10-08T12:46:12;97389.38;;;26.02;36.43
9525;BME280;15940;48.734;9.112;2023-10-08T12:48:53;97388.56;;;25.91;35.10
9525;BME280;15940;48.734;9.112;2023-10-08T12:51:21;97395.66;;;26.02;36.46
9525;BME280;15940;48.734;9.112;2023-10-08T12:53:50;97388.63;;;26.01;36.00
9525;BME280;15940;48.734;9.112;2023-10-08T12:56:24;97392.81;;;26.10;33.60
9525;BME280;15940;48.734;9.112;2023-10-08T12:58:58;97391.56;;;26.20;33.94
9525;BME280;15940;48.734;9.112;2023-10-08T13:01:25;97383.88;;;26.29;33.43
9525;BME280;15940;48.734;9.112;2023-10-08T13:03:56;97375.06;;;26.23;32.66
9525;BME280;15940;48.734;9.112;2023-10-08T13:06:27;97373.50;;;26.29;35.35
9525;BME280;15940;48.734;9.112;2023-10-08T13:08:55;97359.25;;;26.15;33.36
9525;BME280;15940;48.734;9.112;2023-10-08T13:11:24;97360.78;;;26.26;34.71
9525;BME280;15940;48.734;9.112;2023-10-08T13:13:54;97362.63;;;26.41;34.37
9525;BME280;15940;48.734;9.112;2023-10-08T13:16:22;97355.84;;;26.34;33.94
9525;BME280;15940;48.734;9.112;2023-10-08T13:18:50;97350.78;;;26.23;34.03
9525;BME280;15940;48.734;9.112;2023-10-08T13:21:19;97355.53;;;26.30;34.35
9525;BME280;15940;48.734;9.112;2023-10-08T13:23:47;97361.81;;;26.31;33.70
9525;BME280;15940;48.734;9.112;2023-10-08T13:26:15;97361.50;;;26.27;32.62
9525;BME280;15940;48.734;9.112;2023-10-08T13:28:44;97368.25;;;26.33;33.62
9525;BME280;15940;48.734;9.112;2023-10-08T13:31:11;97364.44;;;26.29;34.20
9525;BME280;15940;48.734;9.112;2023-10-08T13:33:39;97366.78;;;26.32;34.89
9525;BME280;15940;48.734;9.112;2023-10-08T13:36:08;97367.22;;;26.29;34.54
9525;BME280;15940;48.734;9.112;2023-10-08T13:38:37;97365.84;;;26.37;33.79
9525;BME280;15940;48.734;9.112;2023-10-08T13:41:07;97364.84;;;26.42;34.46